createdAt,value
2019-03-03T00:03:14.082Z,21.45
2019-03-03T00:08:18.195Z,21.39
2019-03-03T00:13:22.413Z,21.43
2019-03-03T00:18:26.478Z,21.31
2019-03-03T00:23:30.597Z,21.31
2019-03-03T00:28:34.830Z,21.38
2019-03-03T00:33:38.995Z,21.34
2019-03-03T00:39:11.048Z,21.40
2019-03-03T00:44:33.913Z,21.42
2019-03-03T00:49:49.294Z,21.41
2019-03-03T00:55:08.434Z,21.39
2019-03-03T01:00:28.026Z,21.40
2019-03-03T01:05:50.702Z,21.37
2019-03-03T01:11:16.876Z,21.37
2019-03-03T01:16:32.775Z,21.30
2019-03-03T01:21:58.674Z,21.34
2019-03-03T01:27:02.837Z,21.34
2019-03-03T01:32:07.013Z,21.33
2019-03-03T01:37:11.015Z,21.33
2019-03-03T01:42:15.163Z,21.34
2019-03-03T01:47:19.296Z,21.33
2019-03-03T01:52:23.463Z,21.33
2019-03-03T01:57:27.533Z,21.34
2019-03-03T02:02:31.953Z,21.33
2019-03-03T02:07:36.208Z,21.30
2019-03-03T02:12:40.400Z,21.29
2019-03-03T02:17:44.540Z,21.28
2019-03-03T02:22:48.662Z,21.21
2019-03-03T02:27:52.813Z,21.26
2019-03-03T02:32:56.870Z,21.24
2019-03-03T02:38:01.071Z,21.23
2019-03-03T02:43:05.286Z,21.24
2019-03-03T02:48:09.326Z,21.24
2019-03-03T02:53:13.391Z,21.19
2019-03-03T02:58:17.606Z,21.07
2019-03-03T03:03:22.386Z,21.08
2019-03-03T03:08:31.052Z,21.17
2019-03-03T03:13:41.426Z,21.15
2019-03-03T03:18:58.641Z,21.15
2019-03-03T03:24:27.542Z,21.12
2019-03-03T03:29:49.422Z,21.11
2019-03-03T03:35:11.131Z,21.12
2019-03-03T03:40:32.935Z,21.10
2019-03-03T03:45:56.158Z,21.09
2019-03-03T03:51:28.372Z,21.09
2019-03-03T03:56:51.737Z,21.09
2019-03-03T04:02:20.966Z,21.07
2019-03-03T04:07:34.640Z,21.07
2019-03-03T04:12:46.553Z,21.06
2019-03-03T04:18:21.450Z,21.05
2019-03-03T04:23:35.776Z,21.04
2019-03-03T04:29:11.066Z,21.03
2019-03-03T04:34:24.284Z,20.96
2019-03-03T04:39:43.815Z,20.94
2019-03-03T04:44:55.402Z,21.02
2019-03-03T04:50:17.441Z,21.02
2019-03-03T04:55:39.321Z,20.99
2019-03-03T05:00:50.266Z,20.99
2019-03-03T05:06:16.370Z,20.90
2019-03-03T05:12:27.205Z,20.99
2019-03-03T05:17:41.443Z,20.98
2019-03-03T05:22:45.541Z,20.98
2019-03-03T05:27:49.559Z,20.98
2019-03-03T05:32:53.681Z,20.98
2019-03-03T05:37:57.705Z,20.97
2019-03-03T05:43:01.846Z,20.96
2019-03-03T05:48:05.961Z,20.97
2019-03-03T05:53:10.127Z,20.96
2019-03-03T05:58:14.132Z,20.96
2019-03-03T06:03:18.276Z,20.95
2019-03-03T06:08:22.494Z,20.92
2019-03-03T06:13:26.553Z,20.91
2019-03-03T06:18:30.623Z,20.90
2019-03-03T06:23:34.769Z,20.90
2019-03-03T06:28:38.945Z,20.90
2019-03-03T06:33:43.095Z,20.90
2019-03-03T06:38:47.242Z,20.81
2019-03-03T06:43:51.371Z,20.88
2019-03-03T06:48:55.603Z,20.88
2019-03-03T06:53:59.628Z,20.87
2019-03-03T06:59:03.669Z,20.87
2019-03-03T07:04:07.800Z,20.88
2019-03-03T07:09:12.010Z,20.89
2019-03-03T07:14:16.090Z,20.89
2019-03-03T07:19:20.224Z,20.87
2019-03-03T07:24:24.255Z,20.88
2019-03-03T07:29:28.353Z,20.86
2019-03-03T07:34:32.474Z,20.84
2019-03-03T07:39:36.591Z,20.91
2019-03-03T07:44:40.636Z,20.91
2019-03-03T07:49:44.762Z,20.86
2019-03-03T07:54:48.786Z,20.86
2019-03-03T07:59:52.801Z,20.88
2019-03-03T08:04:57.018Z,20.78
2019-03-03T08:10:01.335Z,20.78
2019-03-03T08:20:48.371Z,20.45
2019-03-03T08:25:52.504Z,20.79
2019-03-03T08:30:56.646Z,20.88
2019-03-03T08:36:26.473Z,20.86
2019-03-03T08:41:32.184Z,20.79
2019-03-03T08:46:44.462Z,20.74
2019-03-03T08:52:10.905Z,20.66
2019-03-03T08:57:33.025Z,20.64
2019-03-03T09:02:54.937Z,20.64
2019-03-03T09:08:17.961Z,20.57
2019-03-03T09:13:40.195Z,20.56
2019-03-03T09:18:56.079Z,20.56
2019-03-03T09:24:25.170Z,20.60
2019-03-03T09:29:47.013Z,20.60
2019-03-03T09:35:08.876Z,20.54
2019-03-03T09:40:31.304Z,20.54
2019-03-03T09:45:59.409Z,20.60
2019-03-03T09:51:09.650Z,20.58
2019-03-03T09:56:31.554Z,20.58
2019-03-03T10:02:09.825Z,20.70
2019-03-03T10:07:22.313Z,20.65
2019-03-03T10:12:44.100Z,20.73
2019-03-03T10:18:07.099Z,20.60
2019-03-03T10:23:31.750Z,20.62
2019-03-03T10:29:10.135Z,20.66
2019-03-03T10:34:30.813Z,20.66
2019-03-03T10:40:09.662Z,20.58
2019-03-03T10:45:39.754Z,20.78
2019-03-03T10:50:54.992Z,20.80
2019-03-03T10:56:22.865Z,20.59
2019-03-03T11:41:59.532Z,21.08
2019-03-03T11:47:17.529Z,21.08
2019-03-03T11:53:02.875Z,21.14
2019-03-03T11:58:27.129Z,21.05
2019-03-03T12:03:55.085Z,21.14
2019-03-03T12:09:11.262Z,21.17
2019-03-03T12:14:32.066Z,21.17
2019-03-03T12:19:52.257Z,21.16
2019-03-03T12:25:06.275Z,21.16
2019-03-03T12:30:22.685Z,21.14
2019-03-03T12:35:58.209Z,21.15
2019-03-03T12:41:12.245Z,21.14
2019-03-03T12:46:45.099Z,21.14
2019-03-03T12:52:23.766Z,21.14
2019-03-03T13:03:08.945Z,21.19
2019-03-03T13:20:07.837Z,21.14
2019-03-03T13:25:32.496Z,21.05
2019-03-03T13:30:58.409Z,21.05
2019-03-03T13:36:20.422Z,21.05
2019-03-03T14:13:24.325Z,21.20
2019-03-03T15:14:53.381Z,21.20
2019-03-03T15:47:00.925Z,21.22
2019-03-03T15:53:00.592Z,21.21
2019-03-03T16:38:06.474Z,21.14
2019-03-03T16:43:10.655Z,21.23
2019-03-03T16:53:49.353Z,21.24
2019-03-03T16:58:53.947Z,21.23
2019-03-03T17:03:58.440Z,21.24
2019-03-03T17:09:04.436Z,21.67
2019-03-03T17:14:09.286Z,22.11
2019-03-03T17:19:13.600Z,22.34
2019-03-03T17:24:18.016Z,22.42
2019-03-03T17:29:22.444Z,22.59
2019-03-03T17:39:33.808Z,22.77
2019-03-03T17:44:38.042Z,22.80
2019-03-03T17:49:42.374Z,22.66
2019-03-03T17:54:46.601Z,22.65
2019-03-03T18:04:58.148Z,22.75
2019-03-03T18:10:02.565Z,22.75
2019-03-03T18:15:12.424Z,22.80
2019-03-03T18:20:17.180Z,22.68
2019-03-03T19:14:52.826Z,22.76
2019-03-03T19:26:02.127Z,22.79
2019-03-03T19:31:08.201Z,22.78
2019-03-03T19:36:17.147Z,22.69
2019-03-03T19:41:23.521Z,22.69
2019-03-03T19:46:36.531Z,22.69
2019-03-03T19:51:43.112Z,22.79
2019-03-03T19:56:51.496Z,22.76
2019-03-03T20:19:26.057Z,22.78
2019-03-03T20:24:30.563Z,22.71
2019-03-03T20:29:35.126Z,22.59
2019-03-03T20:34:39.898Z,22.43
2019-03-03T20:39:44.739Z,22.39
2019-03-03T20:44:49.367Z,22.36
2019-03-03T20:49:54.960Z,22.32
2019-03-03T20:55:00.757Z,22.30
2019-03-03T21:06:18.028Z,22.18
2019-03-03T21:11:23.824Z,22.18
2019-03-03T21:16:30.205Z,22.12
2019-03-03T21:21:35.290Z,22.13
2019-03-03T21:26:40.400Z,22.05
2019-03-03T21:31:47.241Z,22.06
2019-03-03T21:36:51.556Z,22.06
2019-03-03T21:41:56.013Z,22.02
2019-03-03T21:47:00.290Z,21.99
2019-03-03T21:52:04.749Z,21.94
2019-03-03T21:57:09.207Z,21.90
2019-03-03T22:02:13.809Z,21.89
2019-03-03T22:07:18.400Z,21.89
2019-03-03T22:12:22.723Z,21.86
2019-03-03T22:17:27.203Z,21.90
2019-03-03T22:22:31.598Z,21.87
2019-03-03T22:27:35.796Z,21.82
2019-03-03T22:32:40.232Z,21.83
2019-03-03T22:37:44.812Z,21.84
2019-03-03T22:42:49.193Z,21.85
2019-03-03T22:47:53.590Z,21.85
2019-03-03T22:52:58.037Z,21.85
2019-03-03T22:58:02.304Z,21.85
2019-03-03T23:03:06.701Z,21.90
2019-03-03T23:08:41.734Z,21.87
2019-03-03T23:14:03.512Z,21.87
2019-03-03T23:20:07.050Z,21.87
2019-03-03T23:25:44.989Z,21.88
2019-03-03T23:30:49.874Z,21.88
2019-03-03T23:35:54.420Z,21.81
2019-03-03T23:40:59.556Z,21.89
2019-03-03T23:46:04.023Z,21.77
2019-03-03T23:51:08.608Z,21.77
2019-03-03T23:56:13.218Z,21.87
